Time;durP1;ratioP1;P1;durP2;ratioP2;P2;SDS_P1;SDS_P2;PMS_P1;PMS_P2;Temp;Humidity;BMP_temperature;BMP_pressure;BME280_temperature;BME280_humidity;BME280_pressure;Samples;Min_cycle;Max_cycle;Signal;HPM_P1;HPM_P2
2022/03/19 00:01:59;;;;;;;9.38;6.90;;;;;;;;;;5084084;28;20020;-47
2022/03/19 00:04:25;;;;;;;9.18;7.00;;;;;;;;;;5083621;28;20028;-44
2022/03/19 00:06:51;;;;;;;9.77;5.68;;;;;;;;;;5085786;28;20107;-43
2022/03/19 00:09:17;;;;;;;9.18;6.53;;;;;;;;;;5084238;28;20020;-44
2022/03/19 00:11:44;;;;;;;8.05;6.13;;;;;;;;;;5082195;28;20027;-48
2022/03/19 00:14:12;;;;;;;8.30;6.35;;;;;;;;;;5085708;28;20028;-47
2022/03/19 00:16:38;;;;;;;8.40;5.97;;;;;;;;;;5066897;28;20485;-44
2022/03/19 00:19:05;;;;;;;8.60;5.72;;;;;;;;;;5085733;28;20514;-44
2022/03/19 00:21:31;;;;;;;8.75;6.32;;;;;;;;;;5081578;28;20101;-46
2022/03/19 00:23:57;;;;;;;8.63;6.50;;;;;;;;;;5095108;28;20468;-45
2022/03/19 00:26:24;;;;;;;8.43;5.95;;;;;;;;;;5094798;28;20423;-48
2022/03/19 00:28:50;;;;;;;8.75;6.30;;;;;;;;;;5095567;28;20024;-45
2022/03/19 00:31:16;;;;;;;9.13;5.70;;;;;;;;;;5094596;28;20020;-49
2022/03/19 00:33:41;;;;;;;11.80;7.47;;;;;;;;;;5095261;28;20042;-44
2022/03/19 00:36:07;;;;;;;9.70;7.07;;;;;;;;;;5095229;28;20746;-46
2022/03/19 00:38:33;;;;;;;8.18;6.60;;;;;;;;;;5094247;28;20028;-45
2022/03/19 00:40:59;;;;;;;9.68;6.50;;;;;;;;;;5095095;28;20358;-45
2022/03/19 00:43:25;;;;;;;10.95;6.93;;;;;;;;;;5094026;28;20032;-47
2022/03/19 00:45:51;;;;;;;7.75;5.82;;;;;;;;;;5076884;28;20028;-47
2022/03/19 00:48:17;;;;;;;8.40;6.05;;;;;;;;;;5094516;28;20023;-46
2022/03/19 00:50:45;;;;;;;9.45;6.78;;;;;;;;;;5094774;28;20016;-44
2022/03/19 00:53:11;;;;;;;8.43;6.72;;;;;;;;;;5094523;28;20035;-52
2022/03/19 00:55:37;;;;;;;8.50;6.30;;;;;;;;;;5094340;28;20039;-47
2022/03/19 00:58:03;;;;;;;8.32;7.00;;;;;;;;;;5094732;28;20024;-44
2022/03/19 01:00:29;;;;;;;7.97;6.57;;;;;;;;;;5095048;28;20020;-47
2022/03/19 01:02:55;;;;;;;8.93;7.25;;;;;;;;;;5095523;28;20020;-48
2022/03/19 01:05:22;;;;;;;9.98;6.47;;;;;;;;;;5094001;28;20016;-48
2022/03/19 01:07:53;;;;;;;8.63;6.28;;;;;;;;;;5094639;28;20059;-47
2022/03/19 01:10:21;;;;;;;10.15;6.68;;;;;;;;;;5093295;28;20020;-49
2022/03/19 01:12:47;;;;;;;8.25;6.60;;;;;;;;;;5094814;28;20028;-47
2022/03/19 01:15:15;;;;;;;8.52;6.47;;;;;;;;;;5094543;28;20027;-51
2022/03/19 01:17:41;;;;;;;12.00;6.93;;;;;;;;;;5093874;28;20056;-44
2022/03/19 01:20:10;;;;;;;8.80;7.32;;;;;;;;;;5094492;28;20354;-44
2022/03/19 01:22:36;;;;;;;9.52;7.13;;;;;;;;;;5093640;28;20528;-44
2022/03/19 01:25:05;;;;;;;9.43;7.30;;;;;;;;;;5094260;28;20061;-44
2022/03/19 01:27:31;;;;;;;8.57;6.80;;;;;;;;;;5093757;28;20028;-44
2022/03/19 01:29:58;;;;;;;8.80;6.45;;;;;;;;;;5094379;28;20066;-44
2022/03/19 01:32:24;;;;;;;9.63;6.90;;;;;;;;;;5093392;28;20101;-44
2022/03/19 01:34:50;;;;;;;7.53;6.10;;;;;;;;;;5093930;28;20062;-44
2022/03/19 01:37:16;;;;;;;7.47;6.03;;;;;;;;;;5093432;28;20078;-51
2022/03/19 01:39:42;;;;;;;9.70;6.95;;;;;;;;;;5094353;28;20032;-45
2022/03/19 01:42:08;;;;;;;10.02;7.40;;;;;;;;;;5094240;28;20377;-47
2022/03/19 01:44:34;;;;;;;9.38;6.85;;;;;;;;;;5083102;28;20607;-44
2022/03/19 01:47:00;;;;;;;8.13;6.25;;;;;;;;;;5073808;28;20032;-43
2022/03/19 01:49:26;;;;;;;9.00;6.85;;;;;;;;;;5073183;28;20107;-47
2022/03/19 01:51:52;;;;;;;7.88;5.93;;;;;;;;;;5073850;28;20053;-45
2022/03/19 01:54:23;;;;;;;9.68;6.53;;;;;;;;;;5072795;28;20028;-44
2022/03/19 01:56:49;;;;;;;10.57;7.57;;;;;;;;;;5073746;28;20023;-44
2022/03/19 01:59:16;;;;;;;8.73;6.65;;;;;;;;;;5073024;28;20443;-51
2022/03/19 02:01:44;;;;;;;7.72;6.35;;;;;;;;;;5073199;28;20101;-46
2022/03/19 02:04:10;;;;;;;8.73;6.47;;;;;;;;;;5072622;28;20029;-50
2022/03/19 02:06:36;;;;;;;7.50;6.00;;;;;;;;;;5072659;28;20024;-45
2022/03/19 02:09:02;;;;;;;8.32;6.78;;;;;;;;;;5073255;28;20032;-45
2022/03/19 02:11:29;;;;;;;8.77;6.45;;;;;;;;;;5072446;28;20024;-47
2022/03/19 02:13:55;;;;;;;8.98;7.15;;;;;;;;;;5073009;28;20028;-44
2022/03/19 02:16:21;;;;;;;9.55;6.63;;;;;;;;;;5072088;28;20530;-45
2022/03/19 02:18:47;;;;;;;8.70;5.75;;;;;;;;;;5073048;28;20165;-46
2022/03/19 02:21:14;;;;;;;10.15;6.38;;;;;;;;;;5073096;28;20369;-44
2022/03/19 02:26:24;;;;;;;9.15;6.22;;;;;;;;;;5072287;28;20154;-46
2022/03/19 02:28:50;;;;;;;8.65;6.45;;;;;;;;;;5073175;28;20044;-46
2022/03/19 02:31:17;;;;;;;8.48;6.50;;;;;;;;;;5072572;28;20016;-50
2022/03/19 02:33:43;;;;;;;9.25;7.07;;;;;;;;;;5072823;28;20028;-44
2022/03/19 02:36:09;;;;;;;10.00;6.93;;;;;;;;;;5072727;28;20032;-46
2022/03/19 02:38:35;;;;;;;8.75;6.43;;;;;;;;;;5071880;28;20060;-44
2022/03/19 02:41:04;;;;;;;9.20;7.07;;;;;;;;;;5072407;28;20109;-44
2022/03/19 02:43:31;;;;;;;8.35;6.50;;;;;;;;;;5072840;28;20115;-43
2022/03/19 02:45:58;;;;;;;8.95;6.68;;;;;;;;;;5092980;28;20028;-46
2022/03/19 02:48:24;;;;;;;9.85;7.07;;;;;;;;;;5092041;28;20032;-43
2022/03/19 02:50:50;;;;;;;8.45;6.68;;;;;;;;;;5092708;28;20033;-44
2022/03/19 02:53:16;;;;;;;8.63;6.72;;;;;;;;;;5092454;28;20021;-51
2022/03/19 02:55:42;;;;;;;10.55;6.45;;;;;;;;;;5092172;28;20024;-44
2022/03/19 02:58:09;;;;;;;8.70;6.63;;;;;;;;;;5092636;28;20043;-44
2022/03/19 03:00:36;;;;;;;8.30;6.53;;;;;;;;;;5091778;28;20122;-46
2022/03/19 03:03:03;;;;;;;9.23;6.55;;;;;;;;;;5092648;28;20050;-44
2022/03/19 03:05:29;;;;;;;8.43;7.03;;;;;;;;;;5091732;28;20103;-44
2022/03/19 03:07:55;;;;;;;9.30;6.75;;;;;;;;;;5092501;28;20082;-43
2022/03/19 03:10:21;;;;;;;11.23;7.40;;;;;;;;;;5091499;28;20028;-47
2022/03/19 03:12:47;;;;;;;7.68;5.72;;;;;;;;;;5092407;28;20020;-43
2022/03/19 03:15:13;;;;;;;7.25;5.90;;;;;;;;;;5092092;28;20024;-44
2022/03/19 03:17:39;;;;;;;8.57;6.10;;;;;;;;;;5091080;28;20635;-50
2022/03/19 03:20:05;;;;;;;8.55;6.32;;;;;;;;;;5074266;28;20035;-44
2022/03/19 03:22:32;;;;;;;9.38;6.35;;;;;;;;;;5091482;28;20099;-44
2022/03/19 03:24:58;;;;;;;8.75;6.50;;;;;;;;;;5091871;28;20099;-46
2022/03/19 03:27:23;;;;;;;10.40;6.70;;;;;;;;;;5091136;28;20058;-44
2022/03/19 03:29:49;;;;;;;11.50;6.65;;;;;;;;;;5092187;28;20122;-44
2022/03/19 03:32:16;;;;;;;8.32;6.20;;;;;;;;;;5092200;28;20024;-45
2022/03/19 03:34:42;;;;;;;9.13;6.20;;;;;;;;;;5091251;28;20103;-47
2022/03/19 03:37:08;;;;;;;14.85;7.63;;;;;;;;;;5092085;28;20020;-44
2022/03/19 03:39:34;;;;;;;8.98;6.28;;;;;;;;;;5090955;28;20534;-44
2022/03/19 03:42:01;;;;;;;8.02;6.22;;;;;;;;;;5091971;28;20028;-44
2022/03/19 03:44:27;;;;;;;9.02;6.55;;;;;;;;;;5082504;28;20024;-44
2022/03/19 03:46:53;;;;;;;8.50;6.13;;;;;;;;;;5071789;28;20347;-47
2022/03/19 03:49:19;;;;;;;7.70;6.18;;;;;;;;;;5071371;28;20051;-51
2022/03/19 03:51:45;;;;;;;9.23;6.97;;;;;;;;;;5071450;28;20024;-44
2022/03/19 03:54:11;;;;;;;10.25;6.90;;;;;;;;;;5071819;28;20492;-46
2022/03/19 03:56:37;;;;;;;9.27;5.97;;;;;;;;;;5070929;28;20059;-44
2022/03/19 03:59:03;;;;;;;8.15;6.18;;;;;;;;;;5071515;28;20025;-46
2022/03/19 04:01:29;;;;;;;8.95;6.30;;;;;;;;;;5070825;28;20129;-47
2022/03/19 04:03:55;;;;;;;9.40;5.70;;;;;;;;;;5071645;28;20096;-44
2022/03/19 04:06:21;;;;;;;7.93;6.57;;;;;;;;;;5070847;28;20458;-50
2022/03/19 04:08:47;;;;;;;8.35;6.57;;;;;;;;;;5071798;28;20028;-47
2022/03/19 04:11:13;;;;;;;8.05;6.22;;;;;;;;;;5071465;28;20020;-45
2022/03/19 04:13:39;;;;;;;6.95;5.80;;;;;;;;;;5070601;28;20650;-44
2022/03/19 04:16:05;;;;;;;7.00;5.93;;;;;;;;;;5071033;28;20049;-46
2022/03/19 04:18:31;;;;;;;9.25;6.10;;;;;;;;;;5070611;28;20036;-48
2022/03/19 04:20:57;;;;;;;7.88;6.25;;;;;;;;;;5071618;28;20017;-48
2022/03/19 04:23:23;;;;;;;9.52;7.28;;;;;;;;;;5070374;28;20025;-46
2022/03/19 04:25:49;;;;;;;8.70;6.25;;;;;;;;;;5070992;28;20515;-47
2022/03/19 04:28:15;;;;;;;8.30;6.88;;;;;;;;;;5071266;28;20107;-46
2022/03/19 04:30:41;;;;;;;9.63;6.57;;;;;;;;;;5070702;28;20670;-46
2022/03/19 04:33:07;;;;;;;7.57;5.75;;;;;;;;;;5071333;28;20023;-47
2022/03/19 04:38:19;;;;;;;8.48;6.28;;;;;;;;;;5071057;28;20059;-51
2022/03/19 04:40:47;;;;;;;7.80;6.38;;;;;;;;;;5070799;28;20040;-47
2022/03/19 04:43:13;;;;;;;8.40;5.93;;;;;;;;;;5070919;28;20428;-44
2022/03/19 04:45:40;;;;;;;7.15;5.57;;;;;;;;;;5090497;28;20028;-45
2022/03/19 04:48:06;;;;;;;7.90;5.97;;;;;;;;;;5094981;28;20024;-44
2022/03/19 04:50:35;;;;;;;8.90;6.40;;;;;;;;;;5094320;28;20020;-48
2022/03/19 04:53:01;;;;;;;8.18;5.78;;;;;;;;;;5095095;28;20028;-47
2022/03/19 04:55:27;;;;;;;8.32;6.60;;;;;;;;;;5094113;28;20107;-48
2022/03/19 04:57:53;;;;;;;8.13;6.65;;;;;;;;;;5094779;28;20028;-44
2022/03/19 05:00:20;;;;;;;7.47;6.38;;;;;;;;;;5094554;28;20105;-50
2022/03/19 05:02:46;;;;;;;7.63;5.70;;;;;;;;;;5094360;28;20074;-43
2022/03/19 05:05:12;;;;;;;8.27;6.95;;;;;;;;;;5094889;28;20028;-44
2022/03/19 05:07:39;;;;;;;7.43;5.82;;;;;;;;;;5094060;28;20039;-44
2022/03/19 05:12:50;;;;;;;8.18;6.43;;;;;;;;;;5094327;28;20542;-43
2022/03/19 05:15:17;;;;;;;8.25;6.88;;;;;;;;;;5094852;28;20039;-43
2022/03/19 05:17:44;;;;;;;8.88;6.25;;;;;;;;;;5093430;28;20054;-44
2022/03/19 05:20:10;;;;;;;8.73;6.68;;;;;;;;;;5076218;28;20028;-44
2022/03/19 05:22:36;;;;;;;7.68;6.10;;;;;;;;;;5093695;28;20393;-43
2022/03/19 05:25:03;;;;;;;8.00;5.57;;;;;;;;;;5094791;28;20050;-44
2022/03/19 05:27:29;;;;;;;7.72;5.65;;;;;;;;;;5093487;28;20051;-43
2022/03/19 05:29:55;;;;;;;6.78;5.57;;;;;;;;;;5094333;28;20461;-44
2022/03/19 05:32:21;;;;;;;7.80;5.90;;;;;;;;;;5093850;28;20025;-51
2022/03/19 05:34:48;;;;;;;7.90;6.68;;;;;;;;;;5093735;28;20051;-43
2022/03/19 05:37:14;;;;;;;8.55;6.40;;;;;;;;;;5094151;28;20025;-43
2022/03/19 05:39:41;;;;;;;9.23;6.53;;;;;;;;;;5093236;28;20407;-43
2022/03/19 05:42:07;;;;;;;8.63;5.70;;;;;;;;;;5093848;28;20358;-43
2022/03/19 05:44:33;;;;;;;8.85;6.28;;;;;;;;;;5083462;28;20103;-44
2022/03/19 05:46:59;;;;;;;7.57;5.70;;;;;;;;;;5073906;28;20021;-43
2022/03/19 05:49:26;;;;;;;7.90;5.65;;;;;;;;;;5072719;28;20389;-50
2022/03/19 05:51:52;;;;;;;7.70;5.95;;;;;;;;;;5073667;28;20034;-46
2022/03/19 05:54:18;;;;;;;9.02;6.65;;;;;;;;;;5073675;28;20032;-46
2022/03/19 05:56:44;;;;;;;7.78;5.55;;;;;;;;;;5072526;28;20021;-43
2022/03/19 05:59:10;;;;;;;8.80;6.72;;;;;;;;;;5073385;28;20036;-45
2022/03/19 06:01:37;;;;;;;7.95;6.15;;;;;;;;;;5072752;28;20027;-44
2022/03/19 06:04:03;;;;;;;8.35;6.05;;;;;;;;;;5073479;28;20365;-47
2022/03/19 06:06:29;;;;;;;7.90;6.45;;;;;;;;;;5072457;28;20461;-44
2022/03/19 06:08:56;;;;;;;8.27;6.38;;;;;;;;;;5073533;28;20033;-46
2022/03/19 06:11:22;;;;;;;8.95;6.45;;;;;;;;;;5073682;28;20465;-50
2022/03/19 06:13:48;;;;;;;7.80;6.28;;;;;;;;;;5072305;28;20031;-45
2022/03/19 06:16:14;;;;;;;9.82;6.90;;;;;;;;;;5072849;28;20074;-47
2022/03/19 06:18:45;;;;;;;9.70;6.65;;;;;;;;;;5072378;28;20038;-45
2022/03/19 06:21:11;;;;;;;8.20;6.15;;;;;;;;;;5072992;28;20024;-45
2022/03/19 06:23:37;;;;;;;9.57;6.25;;;;;;;;;;5072291;28;20021;-47
2022/03/19 06:26:03;;;;;;;7.65;5.95;;;;;;;;;;5072869;28;20442;-48
2022/03/19 06:28:29;;;;;;;7.88;6.13;;;;;;;;;;5071707;28;20099;-44
2022/03/19 06:30:55;;;;;;;8.15;5.90;;;;;;;;;;5073084;28;20029;-48
2022/03/19 06:33:22;;;;;;;8.25;5.90;;;;;;;;;;5072563;28;20139;-48
2022/03/19 06:38:33;;;;;;;7.35;5.70;;;;;;;;;;5071816;28;20035;-45
2022/03/19 06:40:59;;;;;;;8.85;6.07;;;;;;;;;;5072903;28;20028;-44
2022/03/19 06:43:26;;;;;;;9.45;6.47;;;;;;;;;;5072017;28;20052;-50
2022/03/19 06:45:54;;;;;;;8.93;6.10;;;;;;;;;;5092687;28;20035;-44
2022/03/19 06:48:21;;;;;;;8.73;6.43;;;;;;;;;;5092908;28;20024;-44
2022/03/19 06:50:47;;;;;;;8.02;5.07;;;;;;;;;;5091813;28;20048;-44
2022/03/19 06:53:13;;;;;;;8.93;6.13;;;;;;;;;;5092620;28;20058;-47
2022/03/19 06:55:39;;;;;;;8.18;6.07;;;;;;;;;;5091662;28;20024;-44
2022/03/19 06:58:05;;;;;;;9.75;6.30;;;;;;;;;;5092449;28;20523;-43
2022/03/19 07:00:31;;;;;;;7.13;5.45;;;;;;;;;;5091343;28;20023;-44
2022/03/19 07:02:57;;;;;;;10.63;6.75;;;;;;;;;;5092356;28;20028;-43
2022/03/19 07:05:24;;;;;;;7.35;5.50;;;;;;;;;;5092312;28;20024;-44
2022/03/19 07:07:51;;;;;;;7.65;5.78;;;;;;;;;;5091331;28;20481;-44
2022/03/19 07:10:19;;;;;;;9.48;6.63;;;;;;;;;;5092027;28;20449;-44
2022/03/19 07:12:49;;;;;;;7.50;5.60;;;;;;;;;;5092395;28;20019;-42
2022/03/19 07:15:15;;;;;;;10.15;6.07;;;;;;;;;;5091805;28;20374;-43
2022/03/19 07:17:43;;;;;;;9.23;5.65;;;;;;;;;;5091346;28;20052;-43
2022/03/19 07:20:11;;;;;;;10.13;6.10;;;;;;;;;;5091886;28;20135;-44
2022/03/19 07:22:51;;;;;;;9.82;5.45;;;;;;;;;;5073335;28;20387;-42
2022/03/19 07:25:19;;;;;;;8.13;5.72;;;;;;;;;;5092013;28;20111;-43
2022/03/19 07:27:46;;;;;;;9.10;6.22;;;;;;;;;;5091358;28;20028;-43
2022/03/19 07:30:12;;;;;;;10.55;5.75;;;;;;;;;;5091787;28;20034;-44
2022/03/19 07:32:38;;;;;;;9.50;5.70;;;;;;;;;;5091502;28;20469;-44
2022/03/19 07:35:05;;;;;;;6.78;5.38;;;;;;;;;;5092151;28;20027;-42
2022/03/19 07:37:31;;;;;;;9.80;5.85;;;;;;;;;;5091556;28;20365;-48
2022/03/19 07:39:57;;;;;;;10.70;6.25;;;;;;;;;;5073305;28;20362;-43
2022/03/19 07:42:23;;;;;;;9.63;6.47;;;;;;;;;;5092256;28;20028;-43
2022/03/19 07:44:50;;;;;;;7.35;5.72;;;;;;;;;;5079114;28;20103;-43
2022/03/19 07:47:16;;;;;;;6.78;5.72;;;;;;;;;;5071617;28;20489;-43
2022/03/19 07:49:43;;;;;;;8.10;5.53;;;;;;;;;;5070723;28;20024;-43
2022/03/19 07:52:09;;;;;;;10.32;6.18;;;;;;;;;;5072046;28;20025;-45
2022/03/19 07:54:36;;;;;;;7.72;5.40;;;;;;;;;;5070659;28;20021;-43
2022/03/19 07:57:02;;;;;;;8.00;5.63;;;;;;;;;;5072333;28;20504;-44
2022/03/19 07:59:28;;;;;;;8.63;6.13;;;;;;;;;;5070934;28;20381;-49
2022/03/19 08:01:54;;;;;;;8.00;5.85;;;;;;;;;;5071123;28;20025;-45
2022/03/19 08:04:22;;;;;;;7.40;5.95;;;;;;;;;;5071778;28;20028;-43
2022/03/19 08:06:49;;;;;;;9.85;6.32;;;;;;;;;;5070768;28;20107;-45
2022/03/19 08:09:15;;;;;;;7.70;5.80;;;;;;;;;;5071702;28;20025;-46
2022/03/19 08:11:41;;;;;;;10.38;5.93;;;;;;;;;;5083707;28;20369;-48
2022/03/19 08:14:07;;;;;;;14.73;10.23;;;;;;;;;;5089922;28;20030;-48
2022/03/19 08:16:34;;;;;;;17.15;11.55;;;;;;;;;;5087970;28;20050;-47
2022/03/19 08:19:00;;;;;;;18.75;11.52;;;;;;;;;;5088806;28;20032;-47
2022/03/19 08:21:27;;;;;;;18.50;12.60;;;;;;;;;;5092947;28;20028;-49
2022/03/19 08:23:53;;;;;;;19.52;12.65;;;;;;;;;;5092869;28;20026;-46
2022/03/19 08:26:19;;;;;;;18.70;12.88;;;;;;;;;;5092934;28;20104;-43
2022/03/19 08:28:45;;;;;;;18.45;12.77;;;;;;;;;;5092198;28;20036;-45
2022/03/19 08:31:11;;;;;;;17.50;13.13;;;;;;;;;;5092623;28;20020;-44
2022/03/19 08:33:37;;;;;;;21.42;13.77;;;;;;;;;;5092288;28;20052;-45
2022/03/19 08:36:03;;;;;;;21.65;13.43;;;;;;;;;;5092661;28;20103;-44
2022/03/19 08:41:15;;;;;;;20.30;12.73;;;;;;;;;;5092741;28;20077;-46
2022/03/19 08:43:44;;;;;;;18.90;11.75;;;;;;;;;;5089713;28;20017;-46
2022/03/19 08:46:10;;;;;;;20.70;13.63;;;;;;;;;;5072034;28;20085;-44
2022/03/19 08:48:37;;;;;;;17.08;11.57;;;;;;;;;;5071424;28;20077;-43
2022/03/19 08:53:48;;;;;;;23.08;13.43;;;;;;;;;;5071217;28;20093;-44
2022/03/19 08:56:14;;;;;;;22.02;12.02;;;;;;;;;;5071995;28;20039;-47
2022/03/19 08:58:40;;;;;;;20.42;12.77;;;;;;;;;;5071340;28;20032;-47
2022/03/19 09:01:06;;;;;;;17.60;11.82;;;;;;;;;;5071758;28;20036;-45
2022/03/19 09:03:33;;;;;;;15.32;11.80;;;;;;;;;;5071338;28;20073;-48
2022/03/19 09:05:59;;;;;;;19.52;12.40;;;;;;;;;;5071874;28;20028;-45
2022/03/19 09:08:26;;;;;;;18.55;12.32;;;;;;;;;;5077904;28;20040;-47
2022/03/19 09:10:52;;;;;;;21.80;13.35;;;;;;;;;;5073075;28;20868;-46
2022/03/19 09:13:18;;;;;;;15.45;11.15;;;;;;;;;;5092360;28;20040;-47
2022/03/19 09:15:44;;;;;;;23.88;14.00;;;;;;;;;;5091096;28;20049;-45
2022/03/19 09:18:10;;;;;;;19.60;12.18;;;;;;;;;;5092137;28;20035;-45
2022/03/19 09:20:36;;;;;;;18.70;12.77;;;;;;;;;;5091042;28;20043;-50
2022/03/19 09:23:03;;;;;;;17.00;12.00;;;;;;;;;;5091730;28;20020;-45
2022/03/19 09:25:29;;;;;;;18.65;12.10;;;;;;;;;;5091543;28;20044;-50
2022/03/19 09:27:56;;;;;;;20.30;12.88;;;;;;;;;;5091446;28;20060;-45
2022/03/19 09:30:22;;;;;;;18.73;12.50;;;;;;;;;;5091570;28;20021;-49
2022/03/19 09:32:48;;;;;;;25.98;12.95;;;;;;;;;;5089769;28;20028;-44
2022/03/19 09:35:14;;;;;;;22.08;13.30;;;;;;;;;;5075330;28;20056;-44
2022/03/19 09:37:40;;;;;;;20.95;13.18;;;;;;;;;;5070549;28;20078;-44
2022/03/19 09:40:06;;;;;;;21.50;13.50;;;;;;;;;;5091064;28;20028;-45
2022/03/19 09:42:32;;;;;;;22.98;12.55;;;;;;;;;;5090956;28;20034;-53
2022/03/19 09:44:59;;;;;;;21.20;12.93;;;;;;;;;;5078239;28;20028;-46
2022/03/19 09:47:25;;;;;;;16.52;11.18;;;;;;;;;;5070703;28;20561;-45
2022/03/19 09:49:51;;;;;;;17.75;12.55;;;;;;;;;;5070494;28;20107;-45
2022/03/19 09:52:20;;;;;;;18.80;11.50;;;;;;;;;;5071211;28;20031;-43
2022/03/19 09:54:46;;;;;;;17.75;11.10;;;;;;;;;;5070240;28;20017;-45
2022/03/19 09:57:12;;;;;;;14.73;10.40;;;;;;;;;;5071080;28;20028;-45
2022/03/19 09:59:38;;;;;;;16.20;11.15;;;;;;;;;;5070273;28;20067;-44
2022/03/19 10:02:10;;;;;;;19.67;12.32;;;;;;;;;;5071554;28;20060;-44
2022/03/19 10:04:40;;;;;;;15.30;10.90;;;;;;;;;;5072634;28;20016;-44
2022/03/19 10:09:52;;;;;;;13.40;8.43;;;;;;;;;;5090131;28;20085;-44
2022/03/19 10:12:20;;;;;;;14.55;7.35;;;;;;;;;;5093182;28;20064;-45
2022/03/19 10:14:47;;;;;;;12.43;6.43;;;;;;;;;;5092276;28;20028;-44
2022/03/19 10:17:25;;;;;;;13.00;7.05;;;;;;;;;;5092770;28;20048;-43
2022/03/19 10:19:51;;;;;;;12.35;7.07;;;;;;;;;;5092530;28;20100;-46
2022/03/19 10:22:24;;;;;;;11.65;7.32;;;;;;;;;;5093031;28;20021;-47
2022/03/19 10:24:55;;;;;;;14.20;7.38;;;;;;;;;;5092503;28;20455;-45
2022/03/19 10:27:21;;;;;;;9.45;5.95;;;;;;;;;;5093234;28;20419;-47
2022/03/19 10:30:00;;;;;;;8.25;5.85;;;;;;;;;;5092442;28;20120;-45
2022/03/19 10:32:28;;;;;;;15.90;6.50;;;;;;;;;;5092850;28;20073;-46
2022/03/19 10:34:54;;;;;;;9.88;6.75;;;;;;;;;;5091547;28;20081;-46
2022/03/19 10:37:39;;;;;;;15.05;6.47;;;;;;;;;;5092748;28;20039;-45
2022/03/19 10:40:07;;;;;;;13.80;7.10;;;;;;;;;;5092919;28;20099;-45
2022/03/19 10:42:40;;;;;;;12.13;6.85;;;;;;;;;;5091947;28;20073;-53
2022/03/19 10:45:07;;;;;;;10.82;6.15;;;;;;;;;;5078032;28;20381;-45
2022/03/19 10:47:43;;;;;;;10.00;5.97;;;;;;;;;;5072395;28;20025;-53
2022/03/19 10:50:10;;;;;;;10.82;6.43;;;;;;;;;;5072218;28;20489;-44
2022/03/19 10:52:36;;;;;;;9.88;6.28;;;;;;;;;;5071594;28;20037;-49
2022/03/19 10:55:04;;;;;;;8.95;6.03;;;;;;;;;;5072601;28;20031;-44
2022/03/19 10:57:30;;;;;;;10.00;5.78;;;;;;;;;;5072176;28;20434;-44
2022/03/19 10:59:56;;;;;;;8.30;5.82;;;;;;;;;;5071730;28;20037;-44
2022/03/19 11:02:26;;;;;;;9.50;5.95;;;;;;;;;;5072063;28;20351;-44
2022/03/19 11:04:52;;;;;;;9.13;6.15;;;;;;;;;;5071397;28;20237;-45
2022/03/19 11:07:18;;;;;;;8.75;5.60;;;;;;;;;;5072676;28;20029;-45
2022/03/19 11:09:45;;;;;;;8.95;5.97;;;;;;;;;;5071518;28;20381;-44
2022/03/19 11:12:15;;;;;;;8.52;5.88;;;;;;;;;;5071879;28;20103;-48
2022/03/19 11:14:42;;;;;;;10.30;5.75;;;;;;;;;;5071936;28;20051;-45
2022/03/19 11:17:28;;;;;;;8.25;5.75;;;;;;;;;;5072072;28;20136;-45
2022/03/19 11:20:00;;;;;;;11.93;6.18;;;;;;;;;;5053388;28;20043;-44
2022/03/19 11:22:27;;;;;;;8.45;5.75;;;;;;;;;;5072079;28;20108;-45
2022/03/19 11:25:06;;;;;;;8.35;5.40;;;;;;;;;;5071368;28;20030;-45
2022/03/19 11:27:35;;;;;;;8.80;5.50;;;;;;;;;;5072025;28;20020;-46
2022/03/19 11:30:01;;;;;;;8.27;5.78;;;;;;;;;;5071737;28;20025;-44
2022/03/19 11:32:27;;;;;;;9.50;6.00;;;;;;;;;;5071906;28;20099;-44
2022/03/19 11:34:59;;;;;;;7.38;5.85;;;;;;;;;;5070861;28;20028;-45
2022/03/19 11:37:45;;;;;;;10.57;6.07;;;;;;;;;;5072054;28;20074;-44
2022/03/19 11:40:11;;;;;;;7.78;5.38;;;;;;;;;;5071402;28;20078;-44
2022/03/19 11:42:50;;;;;;;7.07;5.28;;;;;;;;;;5070915;28;20032;-53
2022/03/19 11:45:16;;;;;;;7.25;4.78;;;;;;;;;;5071494;28;20063;-47
2022/03/19 11:47:43;;;;;;;7.85;5.00;;;;;;;;;;5070957;28;20060;-45
2022/03/19 11:50:23;;;;;;;6.13;4.88;;;;;;;;;;5072029;28;20028;-46
2022/03/19 11:52:49;;;;;;;6.40;4.18;;;;;;;;;;5070889;28;20028;-46
2022/03/19 11:55:19;;;;;;;7.80;4.88;;;;;;;;;;5073968;28;20070;-46
2022/03/19 11:57:50;;;;;;;7.07;5.10;;;;;;;;;;5074884;28;20039;-49
2022/03/19 12:00:17;;;;;;;7.53;4.78;;;;;;;;;;5075991;28;20025;-47
2022/03/19 12:03:04;;;;;;;6.10;4.82;;;;;;;;;;5074953;28;20059;-46
2022/03/19 12:05:31;;;;;;;6.00;4.57;;;;;;;;;;5057441;28;20035;-48
2022/03/19 12:08:04;;;;;;;8.05;5.00;;;;;;;;;;5074703;28;20020;-47
2022/03/19 12:10:38;;;;;;;7.20;5.13;;;;;;;;;;5076167;28;20032;-47
2022/03/19 12:13:21;;;;;;;6.75;4.38;;;;;;;;;;5075637;28;20017;-50
2022/03/19 12:15:47;;;;;;;6.95;4.25;;;;;;;;;;5074409;28;20052;-46
2022/03/19 12:18:29;;;;;;;8.40;4.75;;;;;;;;;;5075466;28;20116;-50
2022/03/19 12:21:11;;;;;;;6.65;4.38;;;;;;;;;;5074634;28;20021;-46
2022/03/19 12:23:55;;;;;;;7.87;4.83;;;;;;;;;;5074943;28;20021;-55
2022/03/19 12:26:22;;;;;;;6.45;4.60;;;;;;;;;;5075383;28;20024;-48
2022/03/19 12:29:18;;;;;;;5.80;4.63;;;;;;;;;;5074508;28;20036;-47
2022/03/19 12:31:46;;;;;;;6.40;4.60;;;;;;;;;;5061455;28;20117;-46
2022/03/19 12:34:18;;;;;;;6.10;4.30;;;;;;;;;;5075238;28;20017;-45
2022/03/19 12:36:44;;;;;;;5.93;4.68;;;;;;;;;;5074236;28;20031;-45
2022/03/19 12:39:11;;;;;;;6.63;4.55;;;;;;;;;;5075022;28;20033;-45
2022/03/19 12:41:37;;;;;;;5.97;4.40;;;;;;;;;;5074714;28;20035;-53
2022/03/19 12:44:05;;;;;;;5.03;4.07;;;;;;;;;;5079985;28;20369;-45
2022/03/19 12:46:40;;;;;;;5.88;3.92;;;;;;;;;;5095311;28;20044;-46
2022/03/19 12:49:10;;;;;;;6.45;4.47;;;;;;;;;;5095240;28;20067;-48
2022/03/19 12:51:42;;;;;;;5.93;3.90;;;;;;;;;;5094803;28;20047;-53
2022/03/19 12:54:18;;;;;;;7.28;4.57;;;;;;;;;;5095038;28;20016;-46
2022/03/19 12:56:44;;;;;;;5.22;4.00;;;;;;;;;;5094414;28;20468;-45
2022/03/19 12:59:16;;;;;;;6.28;4.10;;;;;;;;;;5094874;28;20024;-45
2022/03/19 13:01:42;;;;;;;6.55;4.53;;;;;;;;;;5094322;28;20024;-46
2022/03/19 13:04:08;;;;;;;5.50;4.30;;;;;;;;;;5076724;28;20031;-48
2022/03/19 13:06:41;;;;;;;6.97;4.40;;;;;;;;;;5093858;28;20024;-47
2022/03/19 13:09:08;;;;;;;4.85;3.67;;;;;;;;;;5094684;28;20039;-46
2022/03/19 13:11:40;;;;;;;5.82;3.95;;;;;;;;;;5094637;28;20080;-47
2022/03/19 13:14:06;;;;;;;5.75;3.75;;;;;;;;;;5094473;28;20366;-47
2022/03/19 13:16:33;;;;;;;5.50;3.85;;;;;;;;;;5094202;28;20066;-50
2022/03/19 13:19:00;;;;;;;5.25;3.50;;;;;;;;;;5093565;28;20635;-45
2022/03/19 13:21:27;;;;;;;5.80;3.55;;;;;;;;;;5094467;28;20103;-53
2022/03/19 13:23:53;;;;;;;6.55;3.97;;;;;;;;;;5093676;28;20028;-47
2022/03/19 13:26:21;;;;;;;5.40;3.53;;;;;;;;;;5094433;28;20495;-46
2022/03/19 13:29:06;;;;;;;4.65;3.58;;;;;;;;;;5093294;28;20473;-46
2022/03/19 13:31:36;;;;;;;4.68;3.40;;;;;;;;;;5094459;28;20031;-48
2022/03/19 13:34:03;;;;;;;4.32;3.05;;;;;;;;;;5093914;28;20062;-48
2022/03/19 13:36:29;;;;;;;4.30;3.47;;;;;;;;;;5094225;28;20471;-48
2022/03/19 13:38:56;;;;;;;4.28;3.05;;;;;;;;;;5093386;28;20035;-51
2022/03/19 13:41:23;;;;;;;5.85;4.07;;;;;;;;;;5094172;28;20019;-49
2022/03/19 13:43:49;;;;;;;4.75;3.55;;;;;;;;;;5089971;28;20024;-45
2022/03/19 13:46:16;;;;;;;4.20;3.35;;;;;;;;;;5074206;28;20492;-47
2022/03/19 13:48:43;;;;;;;3.85;3.42;;;;;;;;;;5072948;28;20033;-46
2022/03/19 13:51:09;;;;;;;5.25;3.95;;;;;;;;;;5055952;28;20028;-45
2022/03/19 13:53:45;;;;;;;5.22;3.10;;;;;;;;;;5073620;28;20094;-48
2022/03/19 13:56:12;;;;;;;4.75;3.83;;;;;;;;;;5073278;28;20043;-47
2022/03/19 13:58:39;;;;;;;6.30;3.15;;;;;;;;;;5073324;28;20067;-54
2022/03/19 14:01:12;;;;;;;4.85;3.63;;;;;;;;;;5073250;28;20083;-46
2022/03/19 14:03:40;;;;;;;5.63;3.40;;;;;;;;;;5073537;28;20017;-54
2022/03/19 14:06:07;;;;;;;8.80;3.55;;;;;;;;;;5074087;28;20131;-45
2022/03/19 14:08:33;;;;;;;5.05;3.50;;;;;;;;;;5073343;28;20497;-45
2022/03/19 14:10:59;;;;;;;4.80;3.10;;;;;;;;;;5072617;28;20025;-46
2022/03/19 14:13:39;;;;;;;6.22;3.00;;;;;;;;;;5073530;28;20127;-44
2022/03/19 14:16:08;;;;;;;4.93;2.97;;;;;;;;;;5071507;28;20520;-51
2022/03/19 14:18:35;;;;;;;4.55;2.80;;;;;;;;;;5072613;28;20389;-44
2022/03/19 14:21:08;;;;;;;4.75;2.72;;;;;;;;;;5072335;28;20036;-45
2022/03/19 14:23:35;;;;;;;4.20;2.90;;;;;;;;;;5073029;28;20012;-43
2022/03/19 14:26:01;;;;;;;6.35;3.40;;;;;;;;;;5071988;28;20016;-44
2022/03/19 14:28:28;;;;;;;4.22;2.90;;;;;;;;;;5072785;28;20036;-45
2022/03/19 14:30:55;;;;;;;4.68;3.05;;;;;;;;;;5072227;28;20048;-43
2022/03/19 14:33:23;;;;;;;3.92;2.60;;;;;;;;;;5073132;28;20021;-43
2022/03/19 14:35:49;;;;;;;5.30;2.97;;;;;;;;;;5072050;28;20017;-44
2022/03/19 14:38:17;;;;;;;7.53;3.08;;;;;;;;;;5072530;28;20032;-43
2022/03/19 14:40:44;;;;;;;4.65;3.40;;;;;;;;;;5072315;28;20086;-50
2022/03/19 14:43:10;;;;;;;4.82;3.25;;;;;;;;;;5072438;28;20539;-45
2022/03/19 14:45:37;;;;;;;6.15;3.72;;;;;;;;;;5090810;28;20489;-43
2022/03/19 14:48:05;;;;;;;4.38;2.40;;;;;;;;;;5091863;28;20069;-44
2022/03/19 14:50:31;;;;;;;7.32;3.20;;;;;;;;;;5092719;28;20032;-44
2022/03/19 14:52:57;;;;;;;3.83;2.45;;;;;;;;;;5091957;28;20024;-43
2022/03/19 14:55:23;;;;;;;4.30;2.83;;;;;;;;;;5092640;28;20411;-44
2022/03/19 14:57:50;;;;;;;4.95;2.47;;;;;;;;;;5091859;28;20095;-43
2022/03/19 15:00:17;;;;;;;4.93;2.40;;;;;;;;;;5088807;28;20028;-43